Latest Weather Observations for Kyabram

IDV60801

Issued at 6:32 pm EDT Tuesday 28 February 2017 (issued every 30 minutes, with the page automatically refreshed every 10 minutes)

About weather observations | Map of weather stations | Latest weather observations for VIC | Other Formats
Station Details ID: 080091 Name: KYABRAM Lat: -36.34 Lon: 145.06 Height: 105.0 m
Data from the previous 72 hours. | See also: Recent months at Kyabram
Date/Time
EDT
Temp
°C
App
Temp
°C
Dew
Point
°C
Rel
Hum
%
Delta-T
°C
Wind Press
QNH
hPa
Press
MSL
hPa
Rain since
9am
mm
Dir  Spd
km/h
Gust
km/h
Spd
kts
Gust
kts
28/06:30pm 31.6 30.1 9.2 25 12.6 SE 7 20 4 11 - - 0.0
28/06:00pm 32.2 30.9 9.1 24 13.1 SSE 6 11 3 6 - - 0.0
28/05:30pm 31.9 29.2 8.8 24 13.0 ESE 13 20 7 11 - - 0.0
28/05:00pm 32.3 30.1 9.2 24 13.1 ESE 11 17 6 9 - - 0.0
28/04:30pm 32.4 31.3 9.9 25 12.9 WSW 6 13 3 7 - - 0.0
28/04:00pm 32.0 30.2 9.5 25 12.8 E 9 17 5 9 - - 0.0
28/03:30pm 31.8 30.1 9.9 26 12.5 ENE 9 15 5 8 - - 0.0
28/03:00pm 32.2 30.8 9.7 25 12.8 ENE 7 17 4 9 - - 0.0
28/02:30pm 31.7 30.6 9.8 26 12.5 ENE 6 11 3 6 - - 0.0
28/02:00pm 31.6 30.9 11.4 29 11.8 ENE 6 13 3 7 - - 0.0
28/01:30pm 30.2 29.8 11.2 31 11.0 ESE 4 11 2 6 - - 0.0
28/01:00pm 29.6 28.7 11.2 32 10.6 E 7 13 4 7 - - 0.0
28/12:30pm 28.9 27.8 11.9 35 9.9 NE 9 15 5 8 - - 0.0
28/12:00pm 28.3 26.3 11.4 35 9.7 NNE 13 20 7 11 - - 0.0
28/11:30am 27.8 26.4 12.2 38 9.1 NE 11 20 6 11 - - 0.0
28/11:00am 27.3 25.5 13.3 42 8.3 NNE 15 28 8 15 - - 0.0
28/10:30am 25.8 24.1 12.3 43 7.8 NE 13 24 7 13 - - 0.0
28/10:00am 24.8 22.6 12.1 45 7.3 NE 15 26 8 14 - - 0.0
28/09:30am 24.3 22.3 11.6 45 7.2 NE 13 19 7 10 - - 0.0
28/09:00am 22.7 20.6 11.1 48 6.5 NE 13 20 7 11 - - 0.0
28/08:30am 21.1 19.7 10.9 52 5.6 ENE 9 15 5 8 - - 0.0
28/08:00am 19.5 18.5 11.0 58 4.7 E 7 11 4 6 - - 0.0
28/07:30am 17.5 16.5 11.1 66 3.5 E 7 9 4 5 - - 0.0
28/07:00am 15.9 15.2 11.3 74 2.5 ESE 6 7 3 4 - - 0.0
28/06:30am 16.8 16.7 10.9 68 3.2 E 2 7 1 4 - - 0.0
28/06:00am 18.6 17.8 11.2 62 4.0 ENE 6 9 3 5 - - 0.0
28/05:30am 19.2 18.1 10.7 58 4.6 NNE 7 13 4 7 - - 0.0
28/05:00am 18.6 17.8 11.2 62 4.0 NE 6 13 3 7 - - 0.0
28/04:30am 18.0 16.8 11.6 66 3.5 ENE 9 13 5 7 - - 0.0
28/04:00am 18.5 17.3 11.6 64 3.8 ENE 9 11 5 6 - - 0.0
28/03:30am 17.8 17.9 11.6 67 3.4 ENE 2 7 1 4 - - 0.0
28/03:00am 19.2 18.5 12.0 63 4.0 ENE 7 11 4 6 - - 0.0
28/02:30am 18.8 19.4 11.9 64 3.8 CALM 0 4 0 2 - - 0.0
28/02:00am 18.9 19.7 12.4 66 3.6 CALM 0 6 0 3 - - 0.0
28/01:30am 19.0 19.2 13.2 69 3.3 SE 4 9 2 5 - - 0.0
28/01:00am 18.4 18.3 13.3 72 2.9 SSE 6 13 3 7 - - 0.0
28/12:30am 18.1 18.8 12.1 68 3.3 CALM 0 0 0 0 - - 0.0
28/12:00am 18.7 19.4 12.2 66 3.6 CALM 0 0 0 0 - - 0.0
 
Date/Time
EDT
Temp
°C
App
Temp
°C
Dew
Point
°C
Rel
Hum
%
Delta-T
°C
Wind Press
QNH
hPa
Press
MSL
hPa
Rain since
9am
mm
Dir  Spd
km/h
Gust
km/h
Spd
kts
Gust
kts
27/11:30pm 19.8 20.6 12.6 63 4.1 CALM 0 0 0 0 - - 0.0
27/11:00pm 19.4 20.2 12.7 65 3.8 CALM 0 0 0 0 - - 0.0
27/10:30pm 20.5 20.8 10.9 54 5.3 CALM 0 0 0 0 - - 0.0
27/10:00pm 21.2 21.8 11.8 55 5.3 CALM 0 0 0 0 - - 0.0
27/09:30pm 22.1 22.7 11.8 52 5.8 CALM 0 0 0 0 - - 0.0
27/09:00pm 23.4 23.8 11.1 46 6.9 CALM 0 0 0 0 - - 0.0
27/08:30pm 24.3 24.6 10.9 43 7.5 CALM 0 0 0 0 - - 0.0
27/08:00pm 26.1 26.2 10.3 37 8.8 CALM 0 0 0 0 - - 0.0
27/07:30pm 28.6 28.2 9.8 31 10.6 SSE 2 9 1 5 - - 0.0
27/07:00pm 30.2 28.9 9.1 27 11.8 SE 6 9 3 5 - - 0.0
27/06:30pm 30.6 29.0 8.9 26 12.1 ESE 7 13 4 7 - - 0.0
27/06:00pm 31.0 30.1 9.3 26 12.2 ENE 4 11 2 6 - - 0.0
27/05:30pm 31.1 29.4 9.9 27 12.1 SE 9 17 5 9 - - 0.0
27/05:00pm 31.1 29.0 9.9 27 12.1 NE 11 20 6 11 - - 0.0
27/04:30pm 31.2 29.4 9.4 26 12.3 ESE 9 15 5 8 - - 0.0
27/04:00pm 31.3 29.8 10.6 28 11.9 SE 9 17 5 9 - - 0.0
27/03:30pm 30.7 29.4 11.1 30 11.4 E 9 15 5 8 - - 0.0
27/03:00pm 29.6 27.4 10.7 31 10.8 ENE 13 22 7 12 - - 0.0
27/02:30pm 30.3 29.2 11.8 32 10.8 E 9 17 5 9 - - 0.0
27/02:00pm 30.3 28.8 11.8 32 10.8 ESE 11 20 6 11 - - 0.0
27/01:30pm 29.3 26.9 11.4 33 10.4 NNE 15 20 8 11 - - 0.0
27/01:00pm 29.6 28.2 12.1 34 10.3 NNE 11 17 6 9 - - 0.0
27/12:30pm 28.2 26.4 12.1 37 9.4 NE 13 20 7 11 - - 0.0
27/12:00pm 27.6 25.9 12.4 39 8.9 NE 13 20 7 11 - - 0.0
27/11:30am 27.1 24.5 12.0 39 8.7 NNE 17 24 9 13 - - 0.0
27/11:00am 27.1 25.6 13.1 42 8.2 NE 13 24 7 13 - - 0.0
27/10:30am 24.7 23.0 11.3 43 7.6 NE 11 20 6 11 - - 0.0
27/10:00am 23.7 21.8 10.4 43 7.4 NE 11 20 6 11 - - 0.0
27/09:30am 22.4 20.0 10.2 46 6.7 NE 13 24 7 13 - - 0.0
27/09:00am 21.1 19.1 10.0 49 6.0 NE 11 20 6 11 - - 0.0
27/08:30am 19.6 17.7 10.6 56 4.9 ENE 11 15 6 8 - - 0.0
27/08:00am 18.1 18.0 10.7 62 4.0 ENE 2 13 1 7 - - 0.0
27/07:30am 15.7 16.1 11.1 74 2.5 CALM 0 0 0 0 - - 0.0
27/07:00am 15.2 14.2 10.2 72 2.6 E 6 7 3 4 - - 0.0
27/06:30am 16.1 15.0 10.6 70 2.9 E 7 9 4 5 - - 0.0
27/06:00am 16.8 15.6 10.4 66 3.4 E 7 11 4 6 - - 0.0
27/05:30am 17.6 16.5 10.5 63 3.8 ENE 7 11 4 6 - - 0.0
27/05:00am 18.1 17.0 10.7 62 4.0 ENE 7 13 4 7 - - 0.0
27/04:30am 18.3 16.8 10.7 61 4.1 ENE 9 17 5 9 - - 0.0
27/04:00am 18.5 17.1 10.8 61 4.2 ENE 9 15 5 8 - - 0.0
27/03:30am 18.7 17.6 10.8 60 4.3 NE 7 15 4 8 - - 0.0
27/03:00am 17.8 18.2 11.1 65 3.6 CALM 0 0 0 0 - - 0.0
27/02:30am 18.1 18.4 11.0 63 3.9 CALM 0 0 0 0 - - 0.0
27/02:00am 19.2 19.6 11.3 60 4.3 CALM 0 0 0 0 - - 0.0
27/01:30am 17.8 18.4 12.0 69 3.2 CALM 0 0 0 0 - - 0.0
27/01:00am 17.9 18.4 11.7 67 3.4 CALM 0 0 0 0 - - 0.0
27/12:30am 18.3 18.7 11.4 64 3.8 CALM 0 0 0 0 - - 0.0
27/12:00am 18.8 19.8 13.2 70 3.2 CALM 0 0 0 0 - - 0.0
 
Date/Time
EDT
Temp
°C
App
Temp
°C
Dew
Point
°C
Rel
Hum
%
Delta-T
°C
Wind Press
QNH
hPa
Press
MSL
hPa
Rain since
9am
mm
Dir  Spd
km/h
Gust
km/h
Spd
kts
Gust
kts
26/11:30pm 19.5 20.2 12.3 63 4.0 CALM 0 0 0 0 - - 0.0
26/11:00pm 20.9 21.6 12.1 57 5.0 CALM 0 0 0 0 - - 0.0
26/10:30pm 21.6 22.0 11.3 52 5.7 CALM 0 0 0 0 - - 0.0
26/10:00pm 21.2 21.8 11.8 55 5.3 CALM 0 0 0 0 - - 0.0
26/09:30pm 22.0 22.6 12.0 53 5.6 CALM 0 0 0 0 - - 0.0
26/09:00pm 22.4 22.9 11.5 50 6.1 CALM 0 0 0 0 - - 0.0
26/08:30pm 24.0 24.4 11.3 45 7.2 CALM 0 0 0 0 - - 0.0
26/08:00pm 26.3 26.5 10.5 37 8.9 CALM 0 0 0 0 - - 0.0
26/07:30pm 28.8 28.6 9.0 29 11.0 CALM 0 0 0 0 - - 0.0
26/07:00pm 30.0 29.9 9.5 28 11.5 CALM 0 0 0 0 - - 0.0
26/06:30pm 30.6 30.5 9.5 27 11.9 CALM 0 0 0 0 - - 0.0
26/06:00pm 30.6 29.4 9.5 27 11.9 ESE 6 15 3 8 - - 0.0
26/05:30pm 30.9 29.2 9.7 27 12.0 E 9 19 5 10 - - 0.0
26/05:00pm 30.8 29.4 9.6 27 12.0 E 7 17 4 9 - - 0.0
26/04:30pm 30.6 29.1 10.5 29 11.5 E 9 19 5 10 - - 0.0
26/04:00pm 30.7 28.4 10.6 29 11.6 E 13 24 7 13 - - 0.0
26/03:30pm 30.2 29.0 11.7 32 10.8 ESE 9 19 5 10 - - 0.0
26/03:00pm 30.7 28.9 12.1 32 11.0 ENE 13 19 7 10 - - 0.0
26/02:30pm 29.6 27.6 11.6 33 10.5 ENE 13 24 7 13 - - 0.0
26/02:00pm 29.7 27.9 12.2 34 10.3 NE 13 24 7 13 - - 0.0
26/01:30pm 29.1 27.4 12.5 36 9.8 NE 13 26 7 14 - - 0.0
26/01:00pm 28.3 26.5 12.2 37 9.4 NE 13 20 7 11 - - 0.0
26/12:30pm 27.5 25.4 12.3 39 8.9 ENE 15 22 8 12 - - 0.0
26/12:00pm 26.2 23.6 11.9 41 8.2 ENE 17 26 9 14 - - 0.0
26/11:30am 26.0 23.3 11.7 41 8.2 NE 17 35 9 19 - - 0.0
26/11:00am 25.1 22.5 12.0 44 7.5 NE 17 28 9 15 - - 0.0
26/10:30am 23.9 22.2 12.5 49 6.6 ENE 13 19 7 10 - - 0.0
26/10:00am 22.6 20.6 12.8 54 5.6 ENE 15 22 8 12 - - 0.0
26/09:30am 20.9 19.2 12.6 59 4.7 E 13 19 7 10 - - 0.0
26/09:00am 19.1 18.3 12.8 67 3.6 E 9 15 5 8 - - 0.0
26/08:30am 16.8 16.3 12.5 76 2.4 SSE 7 11 4 6 - - 0.0
26/08:00am 15.0 14.3 12.1 83 1.6 SE 7 11 4 6 - - 0.0
26/07:30am 13.5 13.0 12.1 91 0.8 SE 6 9 3 5 - - 0.0
26/07:00am 13.0 12.4 11.7 92 0.7 SE 6 9 3 5 - - 0.0
26/06:30am 13.0 12.4 11.6 91 0.7 SE 6 11 3 6 - - 0.0
26/06:00am 13.2 12.9 11.4 89 1.0 SE 4 7 2 4 - - 0.0
26/05:30am 13.5 13.2 11.4 87 1.1 SE 4 9 2 5 - - 0.0
26/05:00am 14.2 13.1 11.9 86 1.2 SE 9 13 5 7 - - 0.0
26/04:30am 14.0 13.1 11.5 85 1.3 SSE 7 11 4 6 - - 0.0
26/04:00am 14.3 13.5 11.6 84 1.5 SSE 7 11 4 6 - - 0.0
26/03:30am 13.9 13.1 11.2 84 1.4 SSE 6 7 3 4 - - 0.0
26/03:00am 14.7 14.1 11.7 82 1.6 ESE 6 9 3 5 - - 0.0
26/02:30am 15.1 14.3 11.7 80 1.8 SSE 7 13 4 7 - - 0.0
26/02:00am 15.2 14.1 12.0 81 1.7 SSE 9 13 5 7 - - 0.0
26/01:30am 15.1 13.9 11.7 80 1.8 S 9 17 5 9 - - 0.0
26/01:00am 15.3 14.1 11.7 79 2.0 S 9 15 5 8 - - 0.0
26/12:30am 15.1 13.8 11.1 77 2.1 S 9 15 5 8 - - 0.0
26/12:00am 15.3 13.5 10.7 74 2.4 S 11 17 6 9 - - 0.0
 
Date/Time
EDT
Temp
°C
App
Temp
°C
Dew
Point
°C
Rel
Hum
%
Delta-T
°C
Wind Press
QNH
hPa
Press
MSL
hPa
Rain since
9am
mm
Dir  Spd
km/h
Gust
km/h
Spd
kts
Gust
kts
25/11:30pm 15.5 13.2 10.3 71 2.7 SSW 13 19 7 10 - - 0.0
25/11:00pm 15.5 13.1 10.1 70 2.8 SSW 13 19 7 10 - - 0.0
25/10:30pm 15.8 13.3 9.7 67 3.2 SSW 13 19 7 10 - - 0.0
25/10:00pm 16.3 14.2 9.7 65 3.5 S 11 19 6 10 - - 0.0
25/09:30pm 17.2 14.2 9.4 60 4.1 S 15 24 8 13 - - 0.0
25/09:00pm 18.3 14.5 9.1 55 4.8 S 19 33 10 18 - - 0.0
25/08:30pm 19.3 15.4 8.6 50 5.6 SSW 19 28 10 15 - - 0.0
25/08:00pm 20.4 16.8 8.4 46 6.3 SSW 17 26 9 14 - - 0.0
25/07:30pm 21.9 17.7 8.1 41 7.3 SSW 20 30 11 16 - - 0.0
25/07:00pm 23.3 19.6 7.8 37 8.2 S 17 30 9 16 - - 0.0

Other Formats:

Comma delimited format used in spreadsheet applications
http://www.bom.gov.au/fwo/IDV60801/IDV60801.95833.axf

JavaScript Object Notation format (JSON) in row-major order
http://www.bom.gov.au/fwo/IDV60801/IDV60801.95833.json